Time;durP1;ratioP1;P1;durP2;ratioP2;P2;SDS_P1;SDS_P2;PMS_P1;PMS_P2;Temp;Humidity;BMP_temperature;BMP_pressure;BME280_temperature;BME280_humidity;BME280_pressure;Samples;Min_cycle;Max_cycle;Signal;HPM_P1;HPM_P2
2022/09/13 00:02:23;;;;;;;;;;;;;;;18.54;100.00;100938.97;5026407;28;20333;-46
2022/09/13 00:04:48;;;;;;;;;;;;;;;18.56;100.00;100949.59;5015572;28;20004;-44
2022/09/13 00:07:14;;;;;;;;;;;;;;;18.57;100.00;100945.84;5026260;28;20379;-42
2022/09/13 00:09:39;;;;;;;;;;;;;;;18.57;100.00;100949.38;5022760;28;19919;-41
2022/09/13 00:12:04;;;;;;;;;;;;;;;18.58;100.00;100942.09;5034214;28;19970;-41
2022/09/13 00:14:29;;;;;;;;;;;;;;;18.62;100.00;100946.03;5034737;28;19912;-43
2022/09/13 00:16:54;;;;;;;;;;;;;;;18.63;99.72;100943.13;5028104;28;19908;-45
2022/09/13 00:19:20;;;;;;;;;;;;;;;18.63;100.00;100942.28;5023146;28;19920;-44
2022/09/13 00:21:45;;;;;;;;;;;;;;;18.62;100.00;100936.03;5035788;28;19948;-43
2022/09/13 00:24:10;;;;;;;;;;;;;;;18.63;100.00;100939.56;5036873;28;19916;-45
2022/09/13 00:26:35;;;;;;;;;;;;;;;18.60;100.00;100932.72;5036679;28;20456;-43
2022/09/13 00:29:00;;;;;;;;;;;;;;;18.57;100.00;100924.22;5036332;28;19912;-43
2022/09/13 00:31:26;;;;;;;;;;;;;;;18.53;100.00;100925.66;5033688;28;20418;-44
2022/09/13 00:33:52;;;;;;;;;;;;;;;18.52;100.00;100916.72;5027022;28;19913;-43
2022/09/13 00:36:17;;;;;;;;;;;;;;;18.52;100.00;100913.19;5033517;28;20260;-44
2022/09/13 00:38:42;;;;;;;;;;;;;;;18.54;100.00;100903.81;5032648;28;20019;-42
2022/09/13 00:41:11;;;;;;;;;;;;;;;18.56;100.00;100907.13;5034949;28;19920;-43
2022/09/13 00:43:39;;;;;;;;;;;;;;;18.58;100.00;100905.03;5034083;28;20447;-42
2022/09/13 00:46:05;;;;;;;;;;;;;;;18.59;100.00;100914.81;5061461;28;19927;-43
2022/09/13 00:48:31;;;;;;;;;;;;;;;18.61;100.00;100903.78;5036033;28;19917;-44
2022/09/13 00:50:56;;;;;;;;;;;;;;;18.60;100.00;100908.38;5030475;28;20428;-43
2022/09/13 00:53:28;;;;;;;;;;;;;;;18.55;100.00;100897.38;5033058;28;19912;-42
2022/09/13 00:55:56;;;;;;;;;;;;;;;18.50;100.00;100904.44;5026361;28;19963;-43
2022/09/13 00:58:26;;;;;;;;;;;;;;;18.43;100.00;100894.50;5036366;28;20283;-41
2022/09/13 01:00:52;;;;;;;;;;;;;;;18.39;100.00;100895.13;5033859;28;20606;-43
2022/09/13 01:03:19;;;;;;;;;;;;;;;18.36;100.00;100892.84;5036708;28;19912;-44
2022/09/13 01:05:47;;;;;;;;;;;;;;;18.35;100.00;100894.72;5027716;28;19912;-42
2022/09/13 01:08:21;;;;;;;;;;;;;;;18.33;100.00;100890.53;5034155;28;19923;-41
2022/09/13 01:10:49;;;;;;;;;;;;;;;18.34;100.00;100889.50;5033683;28;19920;-41
2022/09/13 01:13:19;;;;;;;;;;;;;;;18.32;100.00;100894.31;5035227;28;20370;-42
2022/09/13 01:15:45;;;;;;;;;;;;;;;18.31;100.00;100895.34;5060322;28;20319;-42
2022/09/13 01:18:10;;;;;;;;;;;;;;;18.27;100.00;100895.75;5036498;28;20110;-44
2022/09/13 01:21:07;;;;;;;;;;;;;;;18.31;100.00;100895.34;5034063;28;19925;-44
2022/09/13 01:23:35;;;;;;;;;;;;;;;18.32;100.00;100891.59;5024699;28;20172;-44
2022/09/13 01:26:16;;;;;;;;;;;;;;;18.35;100.00;100893.88;5021459;28;20259;-41
2022/09/13 01:28:47;;;;;;;;;;;;;;;18.36;100.00;100899.06;5035817;28;19916;-43
2022/09/13 01:31:34;;;;;;;;;;;;;;;18.39;100.00;100905.94;5035482;28;20295;-42
2022/09/13 01:34:12;;;;;;;;;;;;;;;18.43;100.00;100899.03;5034607;28;19956;-43
2022/09/13 01:36:53;;;;;;;;;;;;;;;18.43;100.00;100894.50;5033115;28;19985;-42
2022/09/13 01:39:36;;;;;;;;;;;;;;;18.42;100.00;100898.22;5034843;28;19912;-42
2022/09/13 01:42:16;;;;;;;;;;;;;;;18.42;100.00;100892.81;5023103;28;20363;-46
2022/09/13 01:44:44;;;;;;;;;;;;;;;18.40;99.30;100894.09;5034943;28;19924;-42
2022/09/13 01:47:12;;;;;;;;;;;;;;;18.45;99.85;100897.00;5028429;28;19955;-42
2022/09/13 01:49:58;;;;;;;;;;;;;;;18.47;99.25;100891.38;5031695;28;20011;-42
2022/09/13 01:52:42;;;;;;;;;;;;;;;18.47;99.24;100894.06;5034960;28;19939;-42
2022/09/13 01:55:19;;;;;;;;;;;;;;;18.45;99.07;100883.47;5034155;28;20018;-45
2022/09/13 01:57:51;;;;;;;;;;;;;;;18.46;99.16;100887.81;5028123;28;20432;-41
2022/09/13 02:00:17;;;;;;;;;;;;;;;18.45;99.54;100888.88;5031615;28;19913;-42
2022/09/13 02:02:56;;;;;;;;;;;;;;;18.44;99.46;100879.09;5026891;28;20023;-41
2022/09/13 02:05:34;;;;;;;;;;;;;;;18.44;98.78;100879.09;5026467;28;19916;-41
2022/09/13 02:08:05;;;;;;;;;;;;;;;18.44;99.01;100876.38;5034262;28;20322;-41
2022/09/13 02:10:36;;;;;;;;;;;;;;;18.44;99.08;100879.09;5024550;28;20012;-43
2022/09/13 02:13:03;;;;;;;;;;;;;;;18.43;99.07;100866.59;5025203;28;19948;-43
2022/09/13 02:15:33;;;;;;;;;;;;;;;18.41;99.22;100877.66;5024818;28;19920;-45
2022/09/13 02:18:04;;;;;;;;;;;;;;;18.42;99.13;100878.47;5033938;28;19905;-43
2022/09/13 02:20:32;;;;;;;;;;;;;;;18.41;99.26;100880.34;5025835;28;19917;-46
2022/09/13 02:23:00;;;;;;;;;;;;;;;18.40;99.58;100880.56;5021766;28;20283;-41
2022/09/13 02:25:27;;;;;;;;;;;;;;;18.39;100.00;100881.59;5033527;28;19920;-45
2022/09/13 02:27:57;;;;;;;;;;;;;;;18.34;100.00;100889.50;5034383;28;19912;-41
2022/09/13 02:30:23;;;;;;;;;;;;;;;18.30;100.00;100874.78;5027560;28;20445;-44
2022/09/13 02:32:54;;;;;;;;;;;;;;;18.29;100.00;100878.50;5034762;28;19920;-43
2022/09/13 02:35:41;;;;;;;;;;;;;;;18.29;100.00;100879.31;5030078;28;19989;-43
2022/09/13 02:38:16;;;;;;;;;;;;;;;18.26;100.00;100879.75;5028302;28;20179;-42
2022/09/13 02:40:45;;;;;;;;;;;;;;;18.24;100.00;100879.97;5026938;28;20445;-43
2022/09/13 02:43:17;;;;;;;;;;;;;;;18.20;100.00;100888.72;5033672;28;20268;-44
2022/09/13 02:45:47;;;;;;;;;;;;;;;18.16;100.00;100884.75;5033361;28;20934;-44
2022/09/13 02:48:24;;;;;;;;;;;;;;;18.13;100.00;100890.59;5034548;28;19978;-46
2022/09/13 02:50:59;;;;;;;;;;;;;;;18.10;100.00;100894.53;5026724;28;20008;-42
2022/09/13 02:53:29;;;;;;;;;;;;;;;18.08;100.00;100900.16;5032980;28;20009;-42
2022/09/13 02:56:13;;;;;;;;;;;;;;;18.11;100.00;100893.50;5034068;28;19982;-42
2022/09/13 02:58:44;;;;;;;;;;;;;;;18.14;100.00;100897.66;5020402;28;20226;-42
2022/09/13 03:01:10;;;;;;;;;;;;;;;18.13;100.00;100902.25;5032466;28;20315;-47
2022/09/13 03:03:35;;;;;;;;;;;;;;;18.11;100.00;100911.59;5032977;28;19916;-47
2022/09/13 03:06:01;;;;;;;;;;;;;;;18.07;100.00;100906.63;5020829;28;19908;-43
2022/09/13 03:08:27;;;;;;;;;;;;;;;18.05;100.00;100903.28;5030442;28;20215;-45
2022/09/13 03:11:04;;;;;;;;;;;;;;;18.04;100.00;100903.47;5022907;28;19940;-46
2022/09/13 03:13:36;;;;;;;;;;;;;;;18.02;100.00;100902.88;5023969;28;20514;-47
2022/09/13 03:16:08;;;;;;;;;;;;;;;17.97;100.00;100905.34;5033570;28;20249;-43
2022/09/13 03:18:44;;;;;;;;;;;;;;;17.95;100.00;100910.97;5023961;28;19913;-47
2022/09/13 03:21:09;;;;;;;;;;;;;;;17.94;100.00;100906.63;5022272;28;20016;-42
2022/09/13 03:23:45;;;;;;;;;;;;;;;17.91;100.00;100901.63;5014868;28;20015;-43
2022/09/13 03:26:18;;;;;;;;;;;;;;;17.89;100.00;100909.94;5034011;28;19920;-44
2022/09/13 03:29:02;;;;;;;;;;;;;;;17.92;100.00;100908.69;5021836;28;20040;-41
2022/09/13 03:31:37;;;;;;;;;;;;;;;17.91;100.00;100912.44;5030808;28;19912;-42
2022/09/13 03:34:11;;;;;;;;;;;;;;;17.88;100.00;100894.75;5029660;28;19963;-42
2022/09/13 03:36:40;;;;;;;;;;;;;;;17.83;100.00;100894.50;5031506;28;19991;-42
2022/09/13 03:39:08;;;;;;;;;;;;;;;17.79;100.00;100892.47;5033060;28;19913;-42
2022/09/13 03:41:38;;;;;;;;;;;;;;;17.72;100.00;100881.66;5022051;28;19939;-44
2022/09/13 03:44:05;;;;;;;;;;;;;;;17.67;100.00;100887.66;5033730;28;19919;-43
2022/09/13 03:46:51;;;;;;;;;;;;;;;17.66;100.00;100885.16;5028336;28;19908;-44
2022/09/13 03:49:17;;;;;;;;;;;;;;;17.67;100.00;100881.44;5027637;28;20351;-42
2022/09/13 03:51:47;;;;;;;;;;;;;;;17.66;100.00;100883.28;5020383;28;20548;-40
2022/09/13 03:54:17;;;;;;;;;;;;;;;17.66;100.00;100882.47;5030723;28;19920;-41
2022/09/13 03:56:42;;;;;;;;;;;;;;;17.67;100.00;100884.16;5034724;28;20403;-41
2022/09/13 03:59:07;;;;;;;;;;;;;;;17.70;100.00;100889.09;5036968;28;19943;-43
2022/09/13 04:01:33;;;;;;;;;;;;;;;17.68;100.00;100885.78;5037238;28;19994;-43
2022/09/13 04:03:58;;;;;;;;;;;;;;;17.66;100.00;100893.28;5036579;28;19939;-40
2022/09/13 04:06:23;;;;;;;;;;;;;;;17.65;100.00;100892.44;5034939;28;20460;-40
2022/09/13 04:08:49;;;;;;;;;;;;;;;17.66;100.00;100904.06;5037724;28;19928;-41
2022/09/13 04:11:14;;;;;;;;;;;;;;;17.64;100.00;100906.16;5067020;28;19979;-42
2022/09/13 04:13:40;;;;;;;;;;;;;;;17.65;100.00;100905.97;5026637;28;20007;-43
2022/09/13 04:16:06;;;;;;;;;;;;;;;17.63;100.00;100913.41;5035218;28;20487;-39
2022/09/13 04:18:31;;;;;;;;;;;;;;;17.63;100.00;100920.69;5035997;28;19970;-43
2022/09/13 04:20:58;;;;;;;;;;;;;;;17.61;100.00;100923.59;5021258;28;20399;-40
2022/09/13 04:23:24;;;;;;;;;;;;;;;17.57;100.00;100925.06;5033727;28;20094;-43
2022/09/13 04:25:50;;;;;;;;;;;;;;;17.55;100.00;100915.47;5028588;28;19920;-42
2022/09/13 04:28:16;;;;;;;;;;;;;;;17.55;100.00;100920.88;5019464;28;19924;-43
2022/09/13 04:30:45;;;;;;;;;;;;;;;17.53;100.00;100918.38;5030632;28;20136;-41
2022/09/13 04:33:11;;;;;;;;;;;;;;;17.53;100.00;100911.13;5067770;28;19912;-41
2022/09/13 04:35:37;;;;;;;;;;;;;;;17.55;100.00;100910.06;5063920;28;19928;-45
2022/09/13 04:38:03;;;;;;;;;;;;;;;17.54;100.00;100914.66;5036826;28;19920;-41
2022/09/13 04:40:28;;;;;;;;;;;;;;;17.53;100.00;100921.94;5023091;28;20113;-41
2022/09/13 04:42:53;;;;;;;;;;;;;;;17.53;100.00;100921.94;5020592;28;20178;-41
2022/09/13 04:45:18;;;;;;;;;;;;;;;17.53;100.00;100923.78;5028544;28;20007;-41
2022/09/13 04:47:49;;;;;;;;;;;;;;;17.57;100.00;100930.47;5032827;28;20349;-43
2022/09/13 04:50:14;;;;;;;;;;;;;;;17.57;100.00;100929.63;5029339;28;20380;-42
2022/09/13 04:52:39;;;;;;;;;;;;;;;17.58;100.00;100931.28;5030900;28;20004;-42
2022/09/13 04:55:05;;;;;;;;;;;;;;;17.60;100.00;100931.91;5026006;28;20379;-43
2022/09/13 04:57:30;;;;;;;;;;;;;;;17.60;100.00;100930.06;5025541;28;19913;-43
2022/09/13 04:59:56;;;;;;;;;;;;;;;17.61;100.00;100922.78;5032693;28;19916;-43
2022/09/13 05:02:21;;;;;;;;;;;;;;;17.61;100.00;100926.28;5035327;28;19923;-42
2022/09/13 05:04:46;;;;;;;;;;;;;;;17.62;100.00;100922.56;5030342;28;19909;-42
2022/09/13 05:07:11;;;;;;;;;;;;;;;17.64;100.00;100933.16;5029173;28;19913;-42
2022/09/13 05:09:37;;;;;;;;;;;;;;;17.62;100.00;100937.94;5025913;28;20208;-42
2022/09/13 05:12:02;;;;;;;;;;;;;;;17.61;100.00;100928.16;5027740;28;19921;-43
2022/09/13 05:14:27;;;;;;;;;;;;;;;17.63;100.00;100931.50;5028823;28;19966;-41
2022/09/13 05:16:52;;;;;;;;;;;;;;;17.64;100.00;100936.69;5031947;28;19916;-41
2022/09/13 05:19:18;;;;;;;;;;;;;;;17.64;100.00;100934.00;5032543;28;20603;-42
2022/09/13 05:21:43;;;;;;;;;;;;;;;17.62;100.00;100936.06;5028934;28;19978;-43
2022/09/13 05:24:08;;;;;;;;;;;;;;;17.59;100.00;100949.16;5026282;28;19952;-41
2022/09/13 05:26:33;;;;;;;;;;;;;;;17.61;100.00;100936.28;5015799;28;20835;-40
2022/09/13 05:28:59;;;;;;;;;;;;;;;17.62;100.00;100932.56;5053468;28;19924;-43
2022/09/13 05:31:27;;;;;;;;;;;;;;;17.59;100.00;100938.34;5022568;28;20380;-41
2022/09/13 05:33:54;;;;;;;;;;;;;;;17.50;100.00;100943.94;5020155;28;19916;-41
2022/09/13 05:36:20;;;;;;;;;;;;;;;17.46;100.00;100939.97;5019010;28;19908;-42
2022/09/13 05:38:45;;;;;;;;;;;;;;;17.49;100.00;100950.38;5015299;28;20089;-43
2022/09/13 05:41:10;;;;;;;;;;;;;;;17.54;100.00;100944.38;5016083;28;20280;-41
2022/09/13 05:43:35;;;;;;;;;;;;;;;17.59;100.00;100939.19;5014910;28;20046;-41
2022/09/13 05:46:01;;;;;;;;;;;;;;;17.62;100.00;100943.34;5015418;28;19909;-45
2022/09/13 05:48:26;;;;;;;;;;;;;;;17.65;100.00;100953.72;5025473;28;19913;-45
2022/09/13 05:50:52;;;;;;;;;;;;;;;17.66;100.00;100945.41;5013131;28;20485;-42
2022/09/13 05:53:17;;;;;;;;;;;;;;;17.67;100.00;100938.16;5014185;28;20012;-40
2022/09/13 05:55:42;;;;;;;;;;;;;;;17.70;100.00;100943.13;5015466;28;20369;-41
2022/09/13 05:58:08;;;;;;;;;;;;;;;17.73;100.00;100940.03;5014323;28;19913;-41
2022/09/13 06:00:33;;;;;;;;;;;;;;;17.69;100.00;100947.72;5014466;28;19901;-42
2022/09/13 06:02:58;;;;;;;;;;;;;;;17.65;100.00;100945.63;5014762;28;19909;-41
2022/09/13 06:05:24;;;;;;;;;;;;;;;17.62;100.00;100941.47;5011713;28;20406;-41
2022/09/13 06:07:49;;;;;;;;;;;;;;;17.64;100.00;100944.78;5014775;28;19913;-41
2022/09/13 06:10:14;;;;;;;;;;;;;;;17.68;100.00;100939.81;5014574;28;19993;-40
2022/09/13 06:12:39;;;;;;;;;;;;;;;17.67;100.00;100939.00;5014859;28;19935;-41
2022/09/13 06:15:05;;;;;;;;;;;;;;;17.64;100.00;100944.78;5028600;28;19913;-41
2022/09/13 06:17:30;;;;;;;;;;;;;;;17.66;100.00;100950.81;5032548;28;19912;-43
2022/09/13 06:19:55;;;;;;;;;;;;;;;17.69;100.00;100947.72;5024915;28;19912;-44
2022/09/13 06:22:21;;;;;;;;;;;;;;;17.77;100.00;100949.41;5033915;28;19913;-41
2022/09/13 06:24:46;;;;;;;;;;;;;;;17.85;100.00;100946.50;5032901;28;20368;-41
2022/09/13 06:27:11;;;;;;;;;;;;;;;17.92;100.00;100951.91;5025772;28;19916;-43
2022/09/13 06:29:36;;;;;;;;;;;;;;;17.98;100.00;100944.88;5012457;28;19943;-42
2022/09/13 06:32:02;;;;;;;;;;;;;;;18.05;100.00;100945.69;5014338;28;20283;-41
2022/09/13 06:34:28;;;;;;;;;;;;;;;18.12;100.00;100941.09;5013165;28;20049;-46
2022/09/13 06:36:53;;;;;;;;;;;;;;;18.19;100.00;100941.94;5012958;28;20144;-41
2022/09/13 06:39:18;;;;;;;;;;;;;;;18.23;100.00;100934.25;5013813;28;19989;-41
2022/09/13 06:41:43;;;;;;;;;;;;;;;18.27;100.00;100935.47;5014021;28;19930;-40
2022/09/13 06:44:08;;;;;;;;;;;;;;;18.22;100.00;100933.41;5013625;28;19912;-41
2022/09/13 06:46:34;;;;;;;;;;;;;;;18.17;100.00;100935.91;5013948;28;19947;-46
2022/09/13 06:49:00;;;;;;;;;;;;;;;18.15;100.00;100926.34;5012680;28;20419;-43
2022/09/13 06:51:28;;;;;;;;;;;;;;;18.16;100.00;100926.16;5011984;28;20439;-44
2022/09/13 06:53:55;;;;;;;;;;;;;;;18.18;100.00;100937.56;5013932;28;20382;-41
2022/09/13 06:56:25;;;;;;;;;;;;;;;18.27;100.00;100935.47;5013979;28;20000;-43
2022/09/13 06:58:51;;;;;;;;;;;;;;;18.36;100.00;100931.50;5013913;28;20364;-45
2022/09/13 07:01:16;;;;;;;;;;;;;;;18.45;100.00;100934.84;5014211;28;19983;-41
2022/09/13 07:03:44;;;;;;;;;;;;;;;18.51;100.00;100933.97;5013463;28;20008;-40
2022/09/13 07:06:10;;;;;;;;;;;;;;;18.58;100.00;100928.56;5011598;28;19916;-42
2022/09/13 07:08:35;;;;;;;;;;;;;;;18.64;100.00;100939.38;5013868;28;20165;-42
2022/09/13 07:11:01;;;;;;;;;;;;;;;18.70;100.00;100937.66;5013482;28;19928;-41
2022/09/13 07:13:26;;;;;;;;;;;;;;;18.80;100.00;100948.06;5014657;28;19913;-42
2022/09/13 07:15:51;;;;;;;;;;;;;;;18.82;100.00;100943.25;5025520;28;19916;-42
2022/09/13 07:18:16;;;;;;;;;;;;;;;18.92;100.00;100937.44;5034345;28;19917;-41
2022/09/13 07:20:41;;;;;;;;;;;;;;;19.04;100.00;100937.59;5031502;28;20517;-42
2022/09/13 07:23:06;;;;;;;;;;;;;;;19.18;100.00;100941.91;5034162;28;20167;-43
2022/09/13 07:25:32;;;;;;;;;;;;;;;19.26;100.00;100946.22;5028487;28;20265;-41
2022/09/13 07:27:57;;;;;;;;;;;;;;;19.32;100.00;100946.19;5033174;28;19927;-44
2022/09/13 07:30:24;;;;;;;;;;;;;;;19.34;100.00;100944.09;5037572;28;20268;-42
2022/09/13 07:32:49;;;;;;;;;;;;;;;19.39;100.00;100943.47;5037873;28;19912;-40
2022/09/13 07:35:14;;;;;;;;;;;;;;;19.43;100.00;100949.28;5035530;28;20450;-43
2022/09/13 07:37:41;;;;;;;;;;;;;;;19.55;100.00;100956.50;5037653;28;19984;-42
2022/09/13 07:40:06;;;;;;;;;;;;;;;19.69;100.00;100951.81;5036760;28;19909;-42
2022/09/13 07:42:31;;;;;;;;;;;;;;;19.83;100.00;100955.28;5037552;28;19909;-40
2022/09/13 07:44:57;;;;;;;;;;;;;;;19.98;100.00;100957.69;5036643;28;19909;-41
2022/09/13 07:47:22;;;;;;;;;;;;;;;20.14;100.00;100959.00;5037078;28;19908;-43
2022/09/13 07:49:47;;;;;;;;;;;;;;;20.27;100.00;100964.31;5034982;28;20263;-43
2022/09/13 07:52:12;;;;;;;;;;;;;;;20.39;100.00;100969.00;5036680;28;20394;-44
2022/09/13 07:54:37;;;;;;;;;;;;;;;20.51;100.00;100975.34;5036325;28;19917;-45
2022/09/13 07:57:03;;;;;;;;;;;;;;;20.58;100.00;100973.41;5037528;28;20387;-41
2022/09/13 07:59:28;;;;;;;;;;;;;;;20.67;100.00;100963.97;5032355;28;19909;-45
2022/09/13 08:01:53;;;;;;;;;;;;;;;20.76;100.00;100974.53;5037083;28;19908;-41
2022/09/13 08:04:22;;;;;;;;;;;;;;;20.86;100.00;100977.53;5033906;28;19919;-40
2022/09/13 08:06:48;;;;;;;;;;;;;;;20.97;100.00;100971.31;5022054;28;19916;-41
2022/09/13 08:09:14;;;;;;;;;;;;;;;21.13;100.00;100969.03;5037829;28;20011;-42
2022/09/13 08:11:51;;;;;;;;;;;;;;;21.24;100.00;100973.72;5036855;28;20008;-43
2022/09/13 08:14:17;;;;;;;;;;;;;;;21.35;100.00;100980.25;5025598;28;19912;-42
2022/09/13 08:16:43;;;;;;;;;;;;;;;21.38;100.00;100974.38;5037093;28;19912;-41
2022/09/13 08:19:11;;;;;;;;;;;;;;;21.45;100.00;100971.56;5035998;28;19920;-45
2022/09/13 08:21:37;;;;;;;;;;;;;;;21.53;100.00;100968.56;5035712;28;19909;-40
2022/09/13 08:24:03;;;;;;;;;;;;;;;21.67;100.00;100970.00;5036258;28;20390;-41
2022/09/13 08:26:29;;;;;;;;;;;;;;;21.79;100.00;100981.75;5036873;28;20009;-42
2022/09/13 08:28:58;;;;;;;;;;;;;;;21.90;100.00;100988.28;5036716;28;19963;-43
2022/09/13 08:31:24;;;;;;;;;;;;;;;21.92;100.00;100979.91;5035354;28;19943;-44
2022/09/13 08:33:49;;;;;;;;;;;;;;;21.97;100.00;100982.75;5037284;28;20355;-41
2022/09/13 08:36:15;;;;;;;;;;;;;;;22.07;100.00;100993.88;5034561;28;20141;-40
2022/09/13 08:38:44;;;;;;;;;;;;;;;22.11;100.00;100995.03;5036618;28;19941;-41
2022/09/13 08:41:36;;;;;;;;;;;;;;;22.21;100.00;100991.75;5036619;28;19920;-43
2022/09/13 08:44:22;;;;;;;;;;;;;;;22.35;100.00;100995.94;5022662;28;19924;-44
2022/09/13 08:46:48;;;;;;;;;;;;;;;22.39;100.00;100987.31;5032340;28;19909;-43
2022/09/13 08:49:17;;;;;;;;;;;;;;;22.30;100.00;100993.13;5031336;28;19923;-43
2022/09/13 08:51:48;;;;;;;;;;;;;;;22.25;100.00;100984.81;5035598;28;19944;-41
2022/09/13 08:54:15;;;;;;;;;;;;;;;22.31;100.00;100986.59;5035039;28;19912;-46
2022/09/13 08:56:40;;;;;;;;;;;;;;;22.41;100.00;100990.63;5023318;28;19992;-42
2022/09/13 08:59:18;;;;;;;;;;;;;;;22.51;100.00;100996.31;5035316;28;20040;-43
2022/09/13 09:01:43;;;;;;;;;;;;;;;22.62;100.00;100990.00;5036085;28;19919;-44
2022/09/13 09:04:20;;;;;;;;;;;;;;;22.84;100.00;100997.56;5035546;28;19913;-46
2022/09/13 09:06:46;;;;;;;;;;;;;;;23.03;97.93;100993.63;5034932;28;19917;-43
2022/09/13 09:09:18;;;;;;;;;;;;;;;23.14;99.26;100996.59;5036375;28;20337;-44
2022/09/13 09:11:46;;;;;;;;;;;;;;;23.24;97.26;100981.28;5034364;28;19970;-45
2022/09/13 09:14:30;;;;;;;;;;;;;;;23.37;99.11;100987.50;5023025;28;19908;-42
2022/09/13 09:17:01;;;;;;;;;;;;;;;23.54;98.04;100977.50;5036023;28;19916;-43
2022/09/13 09:19:29;;;;;;;;;;;;;;;23.71;96.06;100971.22;5025963;28;19909;-43
2022/09/13 09:21:55;;;;;;;;;;;;;;;23.78;96.25;100963.75;5034123;28;19979;-48
2022/09/13 09:24:24;;;;;;;;;;;;;;;23.92;95.99;100967.00;5035463;28;19952;-43
2022/09/13 09:26:49;;;;;;;;;;;;;;;24.02;95.45;100969.88;5035432;28;20322;-41
2022/09/13 09:29:20;;;;;;;;;;;;;;;23.99;93.98;100963.00;5035423;28;20041;-43
2022/09/13 09:31:54;;;;;;;;;;;;;;;24.05;95.18;100972.13;5035557;28;19924;-44
2022/09/13 09:34:21;;;;;;;;;;;;;;;24.17;93.51;100975.59;5034082;28;20468;-43
2022/09/13 09:36:59;;;;;;;;;;;;;;;24.16;93.63;100970.38;5034325;28;19916;-48
2022/09/13 09:39:26;;;;;;;;;;;;;;;24.01;93.56;100971.78;5034141;28;19909;-42
2022/09/13 09:41:56;;;;;;;;;;;;;;;23.88;94.59;100976.72;5067571;28;20103;-43
2022/09/13 09:44:22;;;;;;;;;;;;;;;23.82;94.08;100973.09;5031989;28;20363;-44
2022/09/13 09:46:53;;;;;;;;;;;;;;;23.76;94.64;100984.94;5024694;28;19919;-43
2022/09/13 09:52:27;;;;;;;;;;;;;;;23.79;95.28;100977.09;5029047;28;20390;-43
2022/09/13 09:54:55;;;;;;;;;;;;;;;23.80;94.33;100975.22;5035288;28;19912;-43
2022/09/13 09:57:22;;;;;;;;;;;;;;;23.84;95.13;100976.41;5035286;28;19962;-42
2022/09/13 09:59:47;;;;;;;;;;;;;;;24.02;94.07;100976.16;5035121;28;20359;-41
2022/09/13 10:02:17;;;;;;;;;;;;;;;24.06;94.17;100976.50;5036493;28;19974;-42
2022/09/13 10:04:52;;;;;;;;;;;;;;;24.13;94.64;100976.31;5032928;28;19923;-42
2022/09/13 10:07:23;;;;;;;;;;;;;;;24.18;92.81;100971.78;5036050;28;19959;-42
2022/09/13 10:09:56;;;;;;;;;;;;;;;24.31;92.55;100970.63;5034709;28;19984;-42
2022/09/13 10:12:26;;;;;;;;;;;;;;;24.45;93.27;100965.63;5020705;28;20438;-43
2022/09/13 10:15:01;;;;;;;;;;;;;;;24.68;91.14;100966.53;5027160;28;19912;-43
2022/09/13 10:17:27;;;;;;;;;;;;;;;24.95;90.66;100967.44;5034535;28;19966;-42
2022/09/13 10:19:58;;;;;;;;;;;;;;;25.12;89.56;100967.34;5031744;28;19940;-42
2022/09/13 10:22:23;;;;;;;;;;;;;;;25.13;89.68;100960.78;5034994;28;19991;-41
2022/09/13 10:24:49;;;;;;;;;;;;;;;24.92;88.70;100953.44;5032333;28;20552;-45
2022/09/13 10:27:20;;;;;;;;;;;;;;;24.83;91.31;100947.63;5032174;28;19913;-42
2022/09/13 10:29:46;;;;;;;;;;;;;;;25.14;86.76;100946.06;5034166;28;20272;-42
2022/09/13 10:32:12;;;;;;;;;;;;;;;25.41;89.01;100949.94;5034704;28;19912;-42
2022/09/13 10:34:41;;;;;;;;;;;;;;;25.86;88.91;100956.91;5027067;28;20521;-43
2022/09/13 10:37:16;;;;;;;;;;;;;;;26.09;82.29;100958.50;5027663;28;19908;-45
2022/09/13 10:40:02;;;;;;;;;;;;;;;25.63;82.64;100956.16;5029210;28;20498;-45
2022/09/13 10:42:29;;;;;;;;;;;;;;;25.17;85.91;100952.94;5030702;28;19951;-45
2022/09/13 10:44:59;;;;;;;;;;;;;;;25.01;88.18;100951.09;5033871;28;19954;-46
2022/09/13 10:47:28;;;;;;;;;;;;;;;24.84;88.73;100942.97;5033613;28;20387;-45
2022/09/13 10:49:55;;;;;;;;;;;;;;;24.74;89.38;100952.66;5030652;28;20189;-44
2022/09/13 10:52:25;;;;;;;;;;;;;;;24.73;87.78;100958.41;5034512;28;19959;-45
2022/09/13 10:54:51;;;;;;;;;;;;;;;24.60;87.14;100962.31;5033281;28;19935;-45
2022/09/13 10:57:46;;;;;;;;;;;;;;;24.60;90.33;100954.13;5034500;28;19908;-44
2022/09/13 11:00:12;;;;;;;;;;;;;;;24.80;88.98;100950.84;5031818;28;19940;-46
2022/09/13 11:02:55;;;;;;;;;;;;;;;24.80;88.43;100953.56;5031907;28;19912;-46
2022/09/13 11:05:25;;;;;;;;;;;;;;;24.71;88.09;100946.88;5034011;28;20525;-45
2022/09/13 11:07:50;;;;;;;;;;;;;;;24.68;88.79;100944.69;5036649;28;19912;-47
2022/09/13 11:10:34;;;;;;;;;;;;;;;24.63;89.32;100941.88;5038011;28;20389;-48
2022/09/13 11:12:59;;;;;;;;;;;;;;;24.69;89.75;100935.41;5026486;28;19919;-46
2022/09/13 11:15:39;;;;;;;;;;;;;;;24.79;88.61;100934.72;5034683;28;20131;-47
2022/09/13 11:18:10;;;;;;;;;;;;;;;24.90;88.96;100931.03;5032374;28;20145;-42
2022/09/13 11:20:50;;;;;;;;;;;;;;;24.90;85.27;100937.31;5033035;28;20062;-46
2022/09/13 11:23:18;;;;;;;;;;;;;;;24.78;87.21;100928.44;5037962;28;19913;-45
2022/09/13 11:26:02;;;;;;;;;;;;;;;24.75;88.50;100929.75;5036233;28;19901;-45
2022/09/13 11:28:33;;;;;;;;;;;;;;;24.69;89.62;100928.03;5037493;28;20095;-44
2022/09/13 11:31:10;;;;;;;;;;;;;;;24.75;89.52;100924.28;5037348;28;19938;-43
2022/09/13 11:33:42;;;;;;;;;;;;;;;24.85;90.14;100915.41;5036942;28;19948;-43
2022/09/13 11:36:08;;;;;;;;;;;;;;;24.85;88.16;100917.31;5034748;28;19916;-45
2022/09/13 11:38:51;;;;;;;;;;;;;;;24.87;88.87;100921.44;5037853;28;20377;-46
2022/09/13 11:41:27;;;;;;;;;;;;;;;25.14;88.30;100924.19;5037912;28;20166;-44
2022/09/13 11:44:07;;;;;;;;;;;;;;;25.36;88.97;100928.81;5037861;28;19939;-48
2022/09/13 11:46:44;;;;;;;;;;;;;;;25.55;87.11;100926.53;5037821;28;19913;-46
2022/09/13 11:49:29;;;;;;;;;;;;;;;25.55;87.15;100931.19;5036432;28;19917;-46
2022/09/13 11:51:57;;;;;;;;;;;;;;;25.46;85.58;100928.94;5029865;28;19974;-43
2022/09/13 11:54:43;;;;;;;;;;;;;;;25.12;86.77;100933.75;5036533;28;19970;-45
2022/09/13 11:57:11;;;;;;;;;;;;;;;24.84;88.18;100924.66;5037538;28;20410;-45
2022/09/13 11:59:36;;;;;;;;;;;;;;;24.84;89.27;100923.84;5036703;28;20323;-43
2022/09/13 12:02:16;;;;;;;;;;;;;;;25.04;88.64;100920.53;5037559;28;20356;-47
2022/09/13 12:05:00;;;;;;;;;;;;;;;25.25;87.77;100925.13;5034895;28;20168;-45
2022/09/13 12:07:48;;;;;;;;;;;;;;;25.43;87.21;100923.16;5037439;28;19970;-43
2022/09/13 12:10:21;;;;;;;;;;;;;;;25.57;86.89;100924.38;5037203;28;20030;-44
2022/09/13 12:12:49;;;;;;;;;;;;;;;25.70;86.53;100923.13;5027731;28;20062;-49
2022/09/13 12:15:36;;;;;;;;;;;;;;;25.87;83.39;100923.81;5029717;28;20453;-48
2022/09/13 12:18:15;;;;;;;;;;;;;;;26.08;86.67;100921.25;5037206;28;20007;-47
2022/09/13 12:20:48;;;;;;;;;;;;;;;26.05;84.57;100919.88;5034212;28;19908;-48
2022/09/13 12:23:18;;;;;;;;;;;;;;;25.81;85.37;100921.28;5037577;28;19909;-43
2022/09/13 12:25:47;;;;;;;;;;;;;;;25.59;84.26;100930.41;5030294;28;19901;-43
2022/09/13 12:28:26;;;;;;;;;;;;;;;25.41;84.64;100915.22;5037523;28;20403;-45
2022/09/13 12:30:54;;;;;;;;;;;;;;;25.76;86.18;100916.59;5036378;28;19913;-45
2022/09/13 12:33:20;;;;;;;;;;;;;;;26.14;83.81;100912.00;5037009;28;19916;-44
2022/09/13 12:35:48;;;;;;;;;;;;;;;26.55;83.00;100911.41;5034158;28;19909;-44
2022/09/13 12:38:22;;;;;;;;;;;;;;;27.23;79.88;100903.16;5036784;28;19912;-45
2022/09/13 12:41:02;;;;;;;;;;;;;;;28.23;75.79;100904.56;5036287;28;20458;-43
2022/09/13 12:43:30;;;;;;;;;;;;;;;29.24;65.39;100906.34;5037045;28;20306;-43
2022/09/13 12:45:58;;;;;;;;;;;;;;;29.60;67.39;100902.50;5036104;28;19909;-47